Terminal Aerodrome Forecast
Issued by NWS Duluth, MN

Home | Current Version | Previous Version | Text Only | Print | Product List | Glossary On
Versions: 1 2 3 4 5 6 7 8 9 10 11 12 13 14 15 16 17 18 19 20 21 22 23
956
FTUS43 KDLH 192320
TAFINL
TAF
KINL 192320Z 2000/2024 24006KT P6SM SCT080
     FM200600 19004KT P6SM VCSH SCT050 BKN120 WS020/23035KT
     FM201100 24005KT P6SM SCT040 BKN100
     FM201500 30010KT P6SM SCT120=

USA.gov is the U.S. government's official web portal to all federal, state and local government web resources and services.